Time;durP1;ratioP1;P1;durP2;ratioP2;P2;SDS_P1;SDS_P2;PMS_P1;PMS_P2;Temp;Humidity;BMP_temperature;BMP_pressure;BME280_temperature;BME280_humidity;BME280_pressure;Samples;Min_cycle;Max_cycle;Signal;HPM_P1;HPM_P2
2020/12/03 00:00:55;;;;;;;32.28;20.95;;;;;;;2.49;69.75;100419.03;1714448;82;21044;-37
2020/12/03 00:03:39;;;;;;;33.38;21.95;;;;;;;2.53;69.64;100414.70;1724287;83;21154;-36
2020/12/03 00:06:16;;;;;;;34.90;22.00;;;;;;;2.51;69.64;100416.89;1714169;83;21437;-36
2020/12/03 00:08:53;;;;;;;36.77;23.90;;;;;;;2.49;69.84;100416.35;1724376;83;21618;-36
2020/12/03 00:11:24;;;;;;;35.03;23.27;;;;;;;2.51;69.72;100411.53;1714131;83;21727;-36
2020/12/03 00:13:54;;;;;;;29.67;21.00;;;;;;;2.48;69.63;100417.42;1724214;83;21186;-36
2020/12/03 00:16:24;;;;;;;32.93;22.20;;;;;;;2.52;69.54;100409.09;1714378;83;21168;-36
2020/12/03 00:18:52;;;;;;;33.10;20.85;;;;;;;2.26;69.10;100364.36;1724351;83;21215;-36
2020/12/03 00:21:40;;;;;;;33.15;21.97;;;;;;;2.56;69.09;100407.48;1714116;83;21179;-36
2020/12/03 00:24:10;;;;;;;34.75;22.22;;;;;;;2.56;68.97;100411.49;1724195;83;21137;-36
2020/12/03 00:26:39;;;;;;;31.75;21.35;;;;;;;2.44;68.96;100406.48;1714241;83;21198;-36
2020/12/03 00:29:07;;;;;;;32.27;22.30;;;;;;;2.39;68.95;100410.55;1724469;83;21189;-36
2020/12/03 00:31:36;;;;;;;33.73;22.25;;;;;;;2.37;68.91;100407.90;1714247;83;21207;-36
2020/12/03 00:34:06;;;;;;;35.05;23.10;;;;;;;2.38;68.89;100406.27;1724116;83;21466;-36
2020/12/03 00:36:35;;;;;;;32.85;21.60;;;;;;;2.34;68.86;100404.42;1714342;83;21174;-36
2020/12/03 00:39:07;;;;;;;33.90;22.75;;;;;;;2.27;69.15;100400.75;1724404;81;21158;-36
2020/12/03 00:41:35;;;;;;;36.28;23.62;;;;;;;2.27;69.16;100399.95;1724120;83;21127;-36
2020/12/03 00:44:05;;;;;;;35.58;23.22;;;;;;;2.20;69.24;100396.23;1714184;83;21268;-36
2020/12/03 00:46:34;;;;;;;35.50;23.63;;;;;;;2.07;69.24;100394.20;1724447;83;21141;-36
2020/12/03 00:49:02;;;;;;;35.40;23.67;;;;;;;2.11;69.55;100397.38;1714457;83;21162;-36
2020/12/03 00:51:31;;;;;;;36.88;25.48;;;;;;;2.03;69.77;100399.84;1724239;83;21108;-36
2020/12/03 00:54:00;;;;;;;37.25;23.70;;;;;;;1.96;69.95;100402.81;1714236;83;21174;-36
2020/12/03 00:56:29;;;;;;;38.23;25.32;;;;;;;1.93;69.98;100403.38;1724460;83;21344;-36
2020/12/03 00:58:58;;;;;;;41.02;24.65;;;;;;;1.95;69.94;100396.40;1714250;83;21158;-36
2020/12/03 01:01:26;;;;;;;40.43;25.32;;;;;;;1.90;70.05;100396.43;1729664;80;21158;-36
2020/12/03 01:03:54;;;;;;;39.60;24.37;;;;;;;1.86;70.23;100397.53;1766416;81;21055;-36
2020/12/03 01:06:23;;;;;;;42.73;26.60;;;;;;;1.95;70.08;100395.86;1766357;81;21158;-36
2020/12/03 01:08:51;;;;;;;42.85;27.42;;;;;;;1.90;69.98;100394.55;1766413;81;21240;-35
2020/12/03 01:11:22;;;;;;;42.35;25.40;;;;;;;1.82;70.29;100393.02;1766336;81;21036;-36
2020/12/03 01:13:51;;;;;;;41.63;25.27;;;;;;;1.81;70.39;100398.89;1766549;81;21562;-36
2020/12/03 01:16:20;;;;;;;39.18;25.37;;;;;;;1.91;70.28;100392.16;1766308;81;21115;-36
2020/12/03 01:18:53;;;;;;;40.03;25.92;;;;;;;1.97;70.11;100388.38;1766434;81;21597;-36
2020/12/03 01:21:21;;;;;;;43.98;28.20;;;;;;;1.99;70.10;100382.20;1766374;81;21374;-36
2020/12/03 01:23:51;;;;;;;47.25;28.50;;;;;;;2.00;70.09;100391.82;1766192;81;20980;-36
2020/12/03 01:26:19;;;;;;;50.65;28.38;;;;;;;2.01;70.10;100386.74;1766489;81;20980;-36
2020/12/03 01:28:48;;;;;;;44.88;27.75;;;;;;;2.01;70.03;100383.27;1766534;81;21194;-36
2020/12/03 01:31:16;;;;;;;45.90;28.52;;;;;;;2.07;69.93;100378.95;1766439;81;21158;-36
2020/12/03 01:33:45;;;;;;;51.08;29.75;;;;;;;2.15;69.84;100378.88;1766396;81;21422;-36
2020/12/03 01:36:14;;;;;;;52.50;29.90;;;;;;;2.16;69.74;100376.48;1766255;81;20976;-36
2020/12/03 01:38:42;;;;;;;48.40;29.27;;;;;;;2.11;69.53;100380.52;1766368;81;21138;-36
2020/12/03 01:41:10;;;;;;;50.67;28.62;;;;;;;2.04;69.71;100378.15;1766234;81;21012;-35
2020/12/03 01:43:44;;;;;;;50.03;28.60;;;;;;;2.02;69.68;100376.31;1766315;81;21171;-36
2020/12/03 01:46:12;;;;;;;47.58;29.57;;;;;;;2.04;69.70;100376.01;1766336;81;21191;-36
2020/12/03 01:48:50;;;;;;;44.55;27.77;;;;;;;2.09;69.84;100379.98;1766470;80;21174;-36
2020/12/03 01:51:36;;;;;;;49.08;29.05;;;;;;;2.10;69.66;100380.25;1766427;81;21186;-36
2020/12/03 01:54:11;;;;;;;48.40;27.93;;;;;;;2.06;69.71;100384.03;1766436;81;21155;-36
2020/12/03 01:57:07;;;;;;;46.65;27.40;;;;;;;2.04;69.76;100382.70;1766635;81;21798;-36
2020/12/03 01:59:41;;;;;;;45.92;26.95;;;;;;;2.08;69.67;100383.20;1766524;80;21342;-36
2020/12/03 02:02:12;;;;;;;44.27;27.70;;;;;;;2.15;69.46;100386.37;1770765;80;21189;-36
2020/12/03 02:04:41;;;;;;;48.15;28.15;;;;;;;2.15;69.44;100386.37;1783184;80;21099;-36
2020/12/03 02:07:13;;;;;;;47.88;27.15;;;;;;;2.16;69.48;100385.30;1783158;80;21138;-36
2020/12/03 02:09:42;;;;;;;49.35;28.60;;;;;;;2.15;69.42;100388.25;1783295;80;21134;-36
2020/12/03 02:12:10;;;;;;;47.88;27.02;;;;;;;2.14;69.35;100386.11;1773422;80;21197;-36
2020/12/03 02:14:40;;;;;;;46.90;27.55;;;;;;;2.14;69.34;100388.78;1783307;79;21019;-36
2020/12/03 02:17:09;;;;;;;45.65;26.30;;;;;;;2.24;69.40;100387.11;1783200;79;21007;-36
2020/12/03 02:19:40;;;;;;;45.08;25.77;;;;;;;2.34;69.02;100387.03;1766278;80;21110;-36
2020/12/03 02:22:10;;;;;;;50.65;28.35;;;;;;;2.35;69.01;100391.31;1752124;81;21154;-36
2020/12/03 02:24:41;;;;;;;48.33;27.57;;;;;;;2.35;68.89;100392.12;1752372;81;21186;-36
2020/12/03 02:27:11;;;;;;;54.80;29.85;;;;;;;2.37;68.98;100393.19;1752130;81;21098;-36
2020/12/03 02:29:40;;;;;;;49.67;27.00;;;;;;;2.37;68.78;100386.49;1752140;81;21400;-36
2020/12/03 02:32:08;;;;;;;42.27;25.80;;;;;;;2.33;68.91;100388.11;1752113;81;21146;-36
2020/12/03 02:34:40;;;;;;;41.90;24.77;;;;;;;2.37;68.84;100384.59;1756271;80;21166;-36
2020/12/03 02:37:08;;;;;;;44.45;25.95;;;;;;;2.48;68.73;100383.97;1783068;80;23634;-36
2020/12/03 02:39:37;;;;;;;47.53;27.75;;;;;;;2.53;68.59;100380.72;1783111;80;21149;-35
2020/12/03 02:42:09;;;;;;;50.90;27.07;;;;;;;2.53;68.54;100373.22;1783268;80;21616;-36
2020/12/03 02:44:45;;;;;;;42.48;24.95;;;;;;;2.55;68.47;100381.78;1783174;79;21105;-36
2020/12/03 02:47:19;;;;;;;48.35;26.52;;;;;;;2.53;68.30;100381.25;1783140;79;21118;-36
2020/12/03 02:49:47;;;;;;;44.75;24.70;;;;;;;2.48;68.46;100372.73;1783324;79;22100;-36
2020/12/03 02:52:21;;;;;;;43.73;24.77;;;;;;;2.52;68.30;100368.94;1782988;79;21023;-36
2020/12/03 02:54:50;;;;;;;40.05;24.70;;;;;;;2.57;68.30;100370.23;1783095;80;21202;-35
2020/12/03 02:57:19;;;;;;;46.53;26.57;;;;;;;2.61;68.29;100373.41;1783077;79;21039;-36
2020/12/03 02:59:47;;;;;;;49.45;27.50;;;;;;;2.61;68.31;100373.97;1783349;79;21145;-36
2020/12/03 03:02:17;;;;;;;48.92;27.67;;;;;;;2.59;68.25;100369.42;1779765;79;21206;-36
2020/12/03 03:04:45;;;;;;;51.08;28.32;;;;;;;2.52;68.38;100380.98;1766405;81;21198;-36
2020/12/03 03:07:13;;;;;;;45.45;26.23;;;;;;;2.44;68.51;100378.39;1766277;81;21031;-36
2020/12/03 03:09:42;;;;;;;48.48;27.65;;;;;;;2.45;68.58;100375.17;1766374;81;21126;-36
2020/12/03 03:12:11;;;;;;;50.45;28.07;;;;;;;2.47;68.59;100369.02;1766381;80;21107;-36
2020/12/03 03:14:39;;;;;;;45.38;26.80;;;;;;;2.43;68.60;100366.62;1766594;81;21530;-36
2020/12/03 03:17:08;;;;;;;51.35;29.05;;;;;;;2.32;68.92;100367.27;1742698;81;21197;-36
2020/12/03 03:19:36;;;;;;;49.08;27.13;;;;;;;2.24;69.21;100370.52;1766433;81;21055;-35
2020/12/03 03:22:05;;;;;;;45.28;27.20;;;;;;;2.15;69.29;100366.31;1764775;81;21154;-44
2020/12/03 03:24:34;;;;;;;46.63;22.20;;;;;;;1.96;69.40;100344.52;1766605;81;21019;-36
2020/12/03 03:30:06;;;;;;;47.55;26.65;;;;;;;1.91;70.06;100367.28;1836094;78;22594;-36
2020/12/03 03:32:34;;;;;;;47.67;27.58;;;;;;;1.79;70.33;100374.33;1808380;79;20981;-36
2020/12/03 03:35:04;;;;;;;46.18;26.42;;;;;;;1.82;70.45;100367.61;1799043;79;21189;-36
2020/12/03 03:37:33;;;;;;;44.77;26.55;;;;;;;1.83;70.28;100369.22;1776587;80;21577;-36
2020/12/03 03:40:04;;;;;;;45.92;25.80;;;;;;;1.74;70.37;100369.01;1776537;80;21333;-36
2020/12/03 03:42:33;;;;;;;42.48;25.30;;;;;;;1.72;70.43;100370.61;1776574;80;21028;-35
2020/12/03 03:45:01;;;;;;;46.98;24.67;;;;;;;1.71;70.49;100366.87;1776476;80;20972;-36
2020/12/03 03:47:30;;;;;;;44.60;25.60;;;;;;;1.74;70.35;100369.01;1776370;80;21308;-36
2020/12/03 03:49:58;;;;;;;46.35;25.43;;;;;;;1.68;70.48;100372.77;1776317;80;20980;-36
2020/12/03 03:52:27;;;;;;;39.42;22.50;;;;;;;1.66;70.60;100374.91;1776211;80;21031;-36
2020/12/03 03:54:55;;;;;;;41.28;23.22;;;;;;;1.74;70.48;100375.69;1776445;80;21016;-36
2020/12/03 03:57:24;;;;;;;42.08;24.37;;;;;;;1.83;70.15;100382.05;1776329;80;21185;-36
2020/12/03 03:59:52;;;;;;;39.25;22.95;;;;;;;1.89;70.10;100379.58;1771397;80;21365;-37
2020/12/03 04:02:21;;;;;;;38.40;22.82;;;;;;;1.92;70.04;100372.90;1776322;80;21155;-36
2020/12/03 04:04:50;;;;;;;45.90;25.17;;;;;;;1.96;70.00;100376.08;1776499;80;21581;-36
2020/12/03 04:07:18;;;;;;;36.98;22.52;;;;;;;1.99;69.92;100378.72;1776331;80;21668;-36
2020/12/03 04:09:48;;;;;;;34.35;22.07;;;;;;;2.06;69.77;100376.55;1776658;80;22303;-36
2020/12/03 04:12:16;;;;;;;37.70;22.85;;;;;;;2.16;69.51;100371.92;1776386;80;21191;-36
2020/12/03 04:14:45;;;;;;;37.88;22.75;;;;;;;2.22;69.22;100376.70;1787559;79;21158;-36
2020/12/03 04:17:13;;;;;;;42.23;23.20;;;;;;;2.21;69.18;100379.11;1807528;79;20932;-36
2020/12/03 04:19:42;;;;;;;40.10;23.60;;;;;;;2.20;68.92;100374.84;1808263;79;21142;-36
2020/12/03 04:22:10;;;;;;;42.03;23.27;;;;;;;2.19;69.09;100375.38;1808084;79;21143;-36
2020/12/03 04:24:38;;;;;;;40.20;23.38;;;;;;;2.22;68.93;100380.72;1808207;79;21365;-36
2020/12/03 04:27:07;;;;;;;43.33;24.60;;;;;;;2.16;69.04;100377.28;1808099;79;21020;-36
2020/12/03 04:29:35;;;;;;;39.50;23.20;;;;;;;2.15;69.05;100377.02;1800743;79;21158;-35
2020/12/03 04:32:04;;;;;;;39.60;21.73;;;;;;;2.15;69.02;100376.21;1797172;79;21104;-36
2020/12/03 04:34:32;;;;;;;39.98;23.27;;;;;;;2.17;68.98;100376.20;1794551;79;21127;-36
2020/12/03 04:37:01;;;;;;;42.17;24.47;;;;;;;2.19;68.83;100379.38;1765756;81;21365;-36
2020/12/03 04:39:29;;;;;;;43.52;25.57;;;;;;;2.18;68.88;100381.80;1765529;81;21111;-35
2020/12/03 04:41:59;;;;;;;43.60;24.47;;;;;;;2.21;68.88;100380.45;1765074;81;20984;-36
2020/12/03 04:44:30;;;;;;;42.40;23.80;;;;;;;2.25;68.89;100383.36;1720066;81;21157;-35
2020/12/03 04:47:51;;;;;;;41.55;22.80;;;;;;;2.25;68.79;100377.47;1765143;80;21159;-36
2020/12/03 04:50:46;;;;;;;37.90;23.47;;;;;;;2.28;68.72;100381.45;1764911;81;21457;-36
2020/12/03 04:53:32;;;;;;;43.20;24.90;;;;;;;2.25;68.69;100382.02;1764969;81;21151;-36
2020/12/03 04:56:09;;;;;;;48.65;26.33;;;;;;;2.25;68.83;100380.15;1765105;81;21100;-36
2020/12/03 04:58:51;;;;;;;41.58;24.45;;;;;;;2.15;68.77;100372.20;1765084;81;21628;-36
2020/12/03 05:01:51;;;;;;;38.58;22.07;;;;;;;2.05;69.09;100373.60;1744375;81;21135;-36
2020/12/03 05:04:25;;;;;;;40.70;23.65;;;;;;;2.06;69.27;100369.86;1765277;80;21316;-36
2020/12/03 05:07:11;;;;;;;42.70;24.30;;;;;;;2.07;69.33;100365.58;1765184;80;21016;-36
2020/12/03 05:09:47;;;;;;;43.25;25.25;;;;;;;2.08;69.32;100372.50;1765211;79;21158;-35
2020/12/03 05:12:26;;;;;;;42.67;24.25;;;;;;;2.05;69.36;100372.27;1764912;81;21015;-36
2020/12/03 05:14:58;;;;;;;44.53;26.12;;;;;;;2.00;69.37;100369.09;1765173;81;21143;-36
2020/12/03 05:17:46;;;;;;;42.25;23.60;;;;;;;1.98;69.43;100376.61;1765044;81;21188;-36
2020/12/03 05:20:43;;;;;;;43.50;25.65;;;;;;;1.96;69.55;100385.97;1765004;81;21017;-36
2020/12/03 05:23:24;;;;;;;44.53;24.15;;;;;;;1.93;69.58;100384.66;1765102;81;21106;-35
2020/12/03 05:25:53;;;;;;;39.38;21.62;;;;;;;1.89;69.66;100386.27;1765151;81;21131;-36
2020/12/03 05:28:52;;;;;;;40.45;23.55;;;;;;;1.91;69.67;100380.12;1765317;80;21127;-36
2020/12/03 05:31:28;;;;;;;40.20;23.50;;;;;;;1.96;69.66;100381.42;1771566;81;21419;-36
2020/12/03 05:34:00;;;;;;;45.67;25.90;;;;;;;1.88;69.79;100378.55;1771425;81;21067;-36
2020/12/03 05:36:32;;;;;;;41.15;23.52;;;;;;;1.80;70.05;100378.57;1768794;79;21194;-36
2020/12/03 05:39:05;;;;;;;38.08;23.35;;;;;;;1.75;70.12;100383.41;1732108;82;21165;-36
2020/12/03 05:41:41;;;;;;;43.58;24.18;;;;;;;1.77;70.13;100380.47;1771554;81;21119;-36
2020/12/03 05:44:23;;;;;;;41.35;23.83;;;;;;;1.79;70.17;100378.34;1732126;82;21363;-36
2020/12/03 05:46:52;;;;;;;44.33;24.43;;;;;;;1.77;70.25;100378.33;1771376;81;21127;-36
2020/12/03 05:49:22;;;;;;;39.98;23.22;;;;;;;1.75;70.38;100375.92;1720008;81;21761;-36
2020/12/03 05:52:13;;;;;;;41.70;22.60;;;;;;;1.75;70.47;100379.40;1771379;81;26597;-36
2020/12/03 05:55:07;;;;;;;42.15;25.08;;;;;;;1.81;70.42;100380.71;1729657;81;21138;-42
2020/12/03 05:57:43;;;;;;;44.38;25.50;;;;;;;1.61;70.37;100359.70;1771412;81;21369;-36
2020/12/03 06:00:25;;;;;;;40.58;24.75;;;;;;;1.74;70.54;100393.84;1771274;81;21150;-36
2020/12/03 06:03:21;;;;;;;47.98;26.70;;;;;;;1.73;70.65;100392.27;1771503;81;21634;-36
2020/12/03 06:06:38;;;;;;;45.95;25.23;;;;;;;1.72;70.66;100397.88;1732271;82;21703;-35
2020/12/03 06:09:37;;;;;;;40.17;23.55;;;;;;;1.72;70.75;100397.34;1771301;81;21142;-36
2020/12/03 06:12:22;;;;;;;47.78;26.42;;;;;;;1.78;70.59;100399.45;1732104;82;21364;-36
2020/12/03 06:15:29;;;;;;;45.92;28.42;;;;;;;1.76;70.52;100401.59;1771259;81;21166;-36
2020/12/03 06:18:24;;;;;;;54.77;31.70;;;;;;;1.71;70.70;100393.59;1732065;82;21117;-36
2020/12/03 06:21:15;;;;;;;47.40;27.73;;;;;;;1.65;70.86;100390.68;1729178;81;21154;-35
2020/12/03 06:24:10;;;;;;;46.33;27.22;;;;;;;1.44;70.99;100365.95;1732131;82;21106;-36
2020/12/03 06:26:56;;;;;;;51.23;30.92;;;;;;;1.56;71.12;100389.66;1771361;81;21386;-35
2020/12/03 06:29:35;;;;;;;44.93;26.97;;;;;;;1.57;71.26;100390.73;1769070;79;21139;-36
2020/12/03 06:32:32;;;;;;;35.63;21.17;;;;;;;1.59;71.38;100386.45;1765389;81;21012;-36
2020/12/03 06:35:24;;;;;;;49.15;27.73;;;;;;;1.63;71.46;100392.84;1765060;79;21480;-36
2020/12/03 06:38:03;;;;;;;48.90;28.65;;;;;;;1.66;71.38;100398.97;1765087;81;21127;-35
2020/12/03 06:40:35;;;;;;;48.60;28.35;;;;;;;1.62;71.44;100397.39;1765122;81;21158;-36
2020/12/03 06:43:32;;;;;;;42.25;25.62;;;;;;;1.64;71.37;100403.27;1765066;81;21115;-36
2020/12/03 06:46:23;;;;;;;47.67;27.87;;;;;;;1.71;71.19;100402.42;1728443;82;21142;-35
2020/12/03 06:49:06;;;;;;;42.80;25.62;;;;;;;1.72;71.13;100411.24;1683988;84;21423;-36
2020/12/03 06:52:03;;;;;;;39.38;23.02;;;;;;;1.68;71.19;100413.67;1755076;81;21179;-35
2020/12/03 06:55:01;;;;;;;40.40;23.67;;;;;;;1.71;71.15;100413.64;1764954;80;21418;-36
2020/12/03 06:57:57;;;;;;;39.45;24.05;;;;;;;1.78;70.99;100416.83;1764870;81;21175;-36
2020/12/03 07:01:06;;;;;;;41.23;24.00;;;;;;;1.83;70.77;100418.14;1728338;83;21178;-36
2020/12/03 07:04:16;;;;;;;37.03;22.85;;;;;;;1.83;70.93;100410.13;1708005;84;21167;-36
2020/12/03 07:07:18;;;;;;;40.80;22.13;;;;;;;1.79;70.89;100418.97;1765115;81;21159;-35
2020/12/03 07:10:13;;;;;;;38.20;23.15;;;;;;;1.79;70.84;100417.09;1728371;83;21363;-36
2020/12/03 07:13:07;;;;;;;39.27;24.27;;;;;;;1.81;70.77;100412.26;1728351;83;21131;-36
2020/12/03 07:16:14;;;;;;;43.20;24.63;;;;;;;1.80;70.84;100413.33;1701487;84;21158;-36
2020/12/03 07:18:50;;;;;;;37.55;22.00;;;;;;;1.78;70.90;100416.03;1734337;81;20976;-35
2020/12/03 07:22:04;;;;;;;36.00;21.70;;;;;;;1.83;70.80;100413.33;1781104;79;21177;-36
2020/12/03 07:24:35;;;;;;;37.40;21.77;;;;;;;1.85;70.72;100411.96;1802348;79;21015;-36
2020/12/03 07:27:23;;;;;;;38.33;22.83;;;;;;;1.90;70.70;100412.47;1802602;79;21142;-36
2020/12/03 07:30:00;;;;;;;;;;;;;;;1.94;70.59;100414.31;1805083;79;21119;-36
2020/12/03 07:32:58;;;;;;;33.63;19.17;;;;;;;1.94;70.33;100419.66;1802358;79;20173;-36
2020/12/03 07:35:31;;;;;;;37.48;22.02;;;;;;;1.91;70.49;100410.87;1802452;79;21161;-35
2020/12/03 07:38:17;;;;;;;37.42;21.50;;;;;;;1.99;70.20;100406.27;1802388;79;21424;-36
2020/12/03 07:40:51;;;;;;;36.05;21.62;;;;;;;2.02;70.20;100415.09;1755210;79;21168;-36
2020/12/03 07:43:37;;;;;;;36.15;22.00;;;;;;;1.99;70.09;100408.14;1802509;79;21608;-36
2020/12/03 07:46:32;;;;;;;39.33;22.85;;;;;;;2.01;70.06;100414.82;1802409;79;21034;-36
2020/12/03 07:49:01;;;;;;;39.55;22.95;;;;;;;2.03;70.12;100416.66;1762117;79;21105;-36
2020/12/03 07:51:29;;;;;;;37.93;22.30;;;;;;;2.10;70.12;100419.05;1802372;79;21416;-36
2020/12/03 07:54:19;;;;;;;37.13;22.70;;;;;;;2.14;70.07;100418.20;1802347;79;21102;-36
2020/12/03 07:56:50;;;;;;;36.95;21.68;;;;;;;2.22;69.91;100416.84;1802421;79;20983;-36
2020/12/03 07:59:29;;;;;;;36.03;22.10;;;;;;;2.26;69.93;100417.07;1802438;79;22118;-36
2020/12/03 08:02:00;;;;;;;36.65;21.93;;;;;;;2.31;69.89;100417.03;1802415;79;21161;-36
2020/12/03 08:04:36;;;;;;;;;;;;;;;2.42;69.71;100418.56;1805134;79;21189;-36
2020/12/03 08:07:23;;;;;;;40.95;23.12;;;;;;;2.45;69.34;100416.66;1802344;79;20270;-36
2020/12/03 08:09:53;;;;;;;43.83;23.25;;;;;;;2.37;69.57;100411.91;1781373;79;21657;-36
2020/12/03 08:12:24;;;;;;;37.88;21.60;;;;;;;2.42;69.44;100409.20;1770635;81;20952;-36
2020/12/03 08:15:00;;;;;;;37.75;22.40;;;;;;;2.42;69.08;100407.30;1770738;81;21130;-36
2020/12/03 08:17:33;;;;;;;35.15;21.37;;;;;;;2.41;69.05;100402.24;1770849;81;21359;-36
2020/12/03 08:20:09;;;;;;;36.93;21.55;;;;;;;2.39;69.14;100403.05;1770931;81;21146;-36
2020/12/03 08:22:44;;;;;;;36.73;22.27;;;;;;;2.43;69.26;100398.73;1770865;81;21125;-36
2020/12/03 08:25:27;;;;;;;39.60;23.42;;;;;;;2.48;69.17;100394.67;1770872;81;21592;-36
2020/12/03 08:28:02;;;;;;;36.98;22.37;;;;;;;2.49;68.88;100388.25;1771018;80;21605;-36
2020/12/03 08:33:18;;;;;;;39.45;22.13;;;;;;;2.42;68.95;100383.78;1836034;78;22787;-36
2020/12/03 08:35:52;;;;;;;35.38;22.30;;;;;;;2.42;68.75;100394.48;1789204;79;21133;-36
2020/12/03 08:38:35;;;;;;;42.03;23.95;;;;;;;2.38;68.75;100384.05;1776343;80;21413;-36
2020/12/03 08:41:07;;;;;;;38.78;22.95;;;;;;;2.33;68.90;100377.40;1776420;80;20925;-36
2020/12/03 08:43:48;;;;;;;38.40;22.13;;;;;;;2.29;68.89;100359.78;1776423;80;21146;-36
2020/12/03 08:46:25;;;;;;;36.28;21.60;;;;;;;2.19;69.22;100368.69;1748301;80;20988;-36
2020/12/03 08:48:53;;;;;;;36.13;20.82;;;;;;;2.16;69.33;100361.23;1776597;80;26621;-36
2020/12/03 08:51:22;;;;;;;34.27;20.72;;;;;;;2.16;69.33;100367.11;1776239;80;21404;-36
2020/12/03 08:53:51;;;;;;;37.73;21.42;;;;;;;2.19;69.46;100372.70;1776296;80;21044;-36
2020/12/03 08:56:34;;;;;;;34.35;21.15;;;;;;;2.26;69.37;100372.92;1776397;80;21282;-35
2020/12/03 08:59:06;;;;;;;36.23;20.77;;;;;;;2.31;69.18;100360.84;1776575;79;21589;-35
2020/12/03 09:01:44;;;;;;;42.95;21.30;;;;;;;2.39;68.97;100362.91;1776488;80;21558;-36
2020/12/03 09:04:13;;;;;;;41.88;22.65;;;;;;;2.50;68.71;100359.08;1786999;79;21545;-36
2020/12/03 09:06:48;;;;;;;43.85;24.23;;;;;;;2.50;68.52;100353.72;1777685;79;21130;-36
2020/12/03 09:09:22;;;;;;;39.33;22.80;;;;;;;2.45;68.63;100351.09;1808192;79;21390;-36
2020/12/03 09:11:51;;;;;;;39.83;22.20;;;;;;;2.15;68.71;100312.81;1808227;79;21189;-36
2020/12/03 09:14:20;;;;;;;42.50;24.05;;;;;;;2.36;68.89;100342.08;1808352;79;21166;-35
2020/12/03 09:16:54;;;;;;;47.78;24.10;;;;;;;2.39;68.72;100340.97;1808214;79;23503;-36
2020/12/03 09:19:27;;;;;;;40.48;21.62;;;;;;;2.35;68.83;100347.16;1808129;79;20960;-36
2020/12/03 09:21:55;;;;;;;45.95;25.30;;;;;;;2.30;69.06;100356.03;1808254;79;20991;-36
2020/12/03 09:24:25;;;;;;;41.83;24.05;;;;;;;2.38;69.13;100345.25;1808157;79;21107;-36
2020/12/03 09:27:01;;;;;;;40.88;23.60;;;;;;;2.43;69.07;100343.33;1808314;79;21601;-36
2020/12/03 09:29:28;;;;;;;39.10;22.90;;;;;;;2.43;68.85;100342.53;1808176;79;21366;-36
2020/12/03 09:32:07;;;;;;;41.23;22.62;;;;;;;2.40;68.90;100343.91;1807127;79;21046;-36
2020/12/03 09:34:36;;;;;;;41.80;22.58;;;;;;;2.34;68.70;100334.32;1797039;79;21124;-36
2020/12/03 09:37:04;;;;;;;40.40;22.93;;;;;;;2.28;69.05;100338.11;1782653;80;21181;-36
2020/12/03 09:39:34;;;;;;;45.50;22.60;;;;;;;2.32;69.00;100328.47;1782850;79;21582;-36
2020/12/03 09:42:03;;;;;;;45.63;24.37;;;;;;;2.29;68.93;100326.33;1782725;80;21372;-38
2020/12/03 09:44:33;;;;;;;45.05;22.93;;;;;;;2.26;69.01;100330.12;1782187;79;21174;-37
2020/12/03 09:47:11;;;;;;;42.73;22.30;;;;;;;2.19;69.18;100328.55;1782261;80;21126;-36
2020/12/03 09:49:44;;;;;;;47.65;24.05;;;;;;;2.22;69.29;100329.09;1771494;79;21114;-37
2020/12/03 09:52:13;;;;;;;44.65;23.73;;;;;;;2.28;69.19;100324.73;1782136;80;21608;-38
2020/12/03 09:54:41;;;;;;;42.53;22.98;;;;;;;2.26;69.34;100327.44;1782111;80;21558;-37
2020/12/03 09:57:12;;;;;;;32.25;16.67;;;;;;;2.21;69.51;100324.81;1782148;80;21166;-37
2020/12/03 09:59:41;;;;;;;48.35;23.65;;;;;;;2.21;69.68;100330.16;1782118;80;21126;-37
2020/12/03 10:02:16;;;;;;;43.40;21.17;;;;;;;2.28;69.58;100327.94;1781069;80;21011;-37
2020/12/03 10:05:22;;;;;;;45.12;21.37;;;;;;;2.35;69.37;100325.22;1781744;80;21607;-37
2020/12/03 10:08:21;;;;;;;44.00;22.32;;;;;;;2.39;68.97;100322.77;1782087;80;21357;-37
2020/12/03 10:10:53;;;;;;;;;;;;;;;2.35;69.15;100318.53;1784516;80;21075;-36
2020/12/03 10:13:48;;;;;;;46.28;22.22;;;;;;;2.35;69.20;100315.85;1782030;80;20194;-35
2020/12/03 10:16:21;;;;;;;43.68;21.73;;;;;;;2.28;69.36;100310.02;1767724;80;20972;-35
2020/12/03 10:18:53;;;;;;;43.75;21.05;;;;;;;2.34;69.25;100317.47;1782170;80;21672;-35
2020/12/03 10:21:26;;;;;;;40.00;20.77;;;;;;;2.44;68.98;100320.05;1782057;80;21548;-35
2020/12/03 10:24:13;;;;;;;42.98;21.30;;;;;;;2.50;68.96;100312.23;1782055;79;21122;-35
2020/12/03 10:27:20;;;;;;;44.77;23.45;;;;;;;2.52;68.80;100310.06;1792175;79;21103;-34
2020/12/03 10:30:07;;;;;;;41.35;20.20;;;;;;;2.49;68.72;100310.09;1782063;80;21031;-35
2020/12/03 10:32:40;;;;;;;39.53;19.35;;;;;;;2.39;69.05;100304.84;1774021;80;21175;-35
2020/12/03 10:35:08;;;;;;;37.53;19.75;;;;;;;2.36;69.16;100304.08;1775520;79;21280;-36
2020/12/03 10:37:53;;;;;;;35.73;19.15;;;;;;;2.42;68.97;100304.83;1796574;79;21166;-36
2020/12/03 10:40:23;;;;;;;41.08;21.27;;;;;;;2.39;69.03;100299.48;1796644;79;21583;-36
2020/12/03 10:43:05;;;;;;;41.75;20.27;;;;;;;2.39;69.11;100293.34;1796567;79;21123;-36
2020/12/03 10:45:40;;;;;;;38.55;19.87;;;;;;;2.35;69.01;100286.42;1795975;79;21088;-36
2020/12/03 10:48:24;;;;;;;31.52;17.87;;;;;;;2.31;69.06;100291.28;1796652;79;21183;-36
2020/12/03 10:51:04;;;;;;;33.85;18.25;;;;;;;2.35;68.99;100288.30;1796672;79;21602;-36
2020/12/03 10:53:32;;;;;;;;;;;;;;;2.43;68.76;100283.66;1799109;79;21158;-36
2020/12/03 10:56:03;;;;;;;39.90;20.70;;;;;;;2.43;68.88;100279.64;1796563;79;20181;-36
2020/12/03 10:58:54;;;;;;;35.63;19.37;;;;;;;2.36;69.24;100280.53;1796580;79;21139;-36
2020/12/03 11:01:27;;;;;;;41.00;19.67;;;;;;;2.38;69.17;100278.35;1796122;79;21188;-36
2020/12/03 11:04:08;;;;;;;36.53;19.32;;;;;;;2.42;69.24;100279.41;1796430;79;21107;-36
2020/12/03 11:06:36;;;;;;;37.88;19.92;;;;;;;2.50;68.97;100280.13;1796480;79;21088;-36
2020/12/03 11:09:05;;;;;;;34.18;19.30;;;;;;;2.59;68.86;100282.43;1796518;79;21131;-38
2020/12/03 11:11:36;;;;;;;35.20;19.65;;;;;;;2.63;68.30;100282.11;1796518;79;21143;-37
2020/12/03 11:14:11;;;;;;;39.15;19.85;;;;;;;2.61;68.14;100288.31;1796514;79;21360;-37
2020/12/03 11:16:50;;;;;;;35.28;20.52;;;;;;;2.59;68.00;100287.78;1796625;79;21574;-37
2020/12/03 11:19:22;;;;;;;36.23;20.82;;;;;;;2.55;68.06;100282.20;1793219;79;21169;-37
2020/12/03 11:22:22;;;;;;;37.88;20.62;;;;;;;2.52;68.36;100273.92;1775147;79;21578;-37
2020/12/03 11:24:54;;;;;;;30.70;19.23;;;;;;;2.53;68.15;100279.00;1767656;79;21629;-35
2020/12/03 11:27:25;;;;;;;32.98;19.65;;;;;;;2.44;68.27;100279.91;1796495;79;21195;-35
2020/12/03 11:29:53;;;;;;;29.80;18.40;;;;;;;2.43;68.44;100284.99;1782886;79;21181;-35
2020/12/03 11:32:27;;;;;;;35.30;20.92;;;;;;;2.41;68.36;100290.65;1765510;80;21155;-36
2020/12/03 11:34:55;;;;;;;33.75;20.40;;;;;;;2.38;68.62;100289.86;1765010;79;21488;-37
2020/12/03 11:37:24;;;;;;;35.90;21.23;;;;;;;2.37;68.64;100284.81;1728384;82;21154;-36
2020/12/03 11:40:06;;;;;;;33.63;20.10;;;;;;;2.37;68.46;100288.83;1708309;84;21378;-37
2020/12/03 11:42:50;;;;;;;39.00;21.15;;;;;;;2.36;68.66;100288.02;1728298;82;21092;-37
2020/12/03 11:50:39;;;;;;;38.23;22.25;;;;;;;2.38;68.65;100273.80;1728504;83;21126;-37
2020/12/03 11:53:31;;;;;;;36.88;20.35;;;;;;;2.41;68.75;100269.24;1836022;78;22805;-36
2020/12/03 11:56:00;;;;;;;36.90;22.40;;;;;;;2.43;68.58;100268.94;1808276;79;20956;-36
2020/12/03 11:58:30;;;;;;;39.40;22.90;;;;;;;2.48;68.47;100272.91;1808234;79;21354;-36
2020/12/03 12:01:09;;;;;;;41.30;24.07;;;;;;;2.51;68.58;100271.81;1808273;79;20981;-36
2020/12/03 12:03:40;;;;;;;37.70;22.07;;;;;;;2.51;68.41;100273.69;1808292;79;20976;-36
2020/12/03 12:09:11;;;;;;;37.08;23.02;;;;;;;2.49;68.39;100263.26;1835976;78;22855;-36
2020/12/03 12:11:32;;;;;;;41.55;23.57;;;;;;;2.40;68.32;100260.15;1804939;79;21046;-36
2020/12/03 12:13:56;;;;;;;;;;;;;;;2.32;68.53;100251.41;1810367;79;21417;-36